createdAt,value
2019-03-29T00:00:15.345Z,71.42
2019-03-29T00:01:15.305Z,71.62
2019-03-29T00:02:15.376Z,71.42
2019-03-29T00:03:15.281Z,71.52
2019-03-29T00:04:15.291Z,71.83
2019-03-29T00:05:15.254Z,71.93
2019-03-29T00:06:15.240Z,71.52
2019-03-29T00:07:15.237Z,71.83
2019-03-29T00:08:15.217Z,71.83
2019-03-29T00:09:15.225Z,71.86
2019-03-29T00:10:15.194Z,72.14
2019-03-29T00:11:15.190Z,72.17
2019-03-29T00:12:15.176Z,72.06
2019-03-29T00:13:15.177Z,72.06
2019-03-29T00:14:15.860Z,72.58
2019-03-29T00:15:15.155Z,72.14
2019-03-29T00:16:15.133Z,72.27
2019-03-29T00:17:15.123Z,72.06
2019-03-29T00:18:15.115Z,72.06
2019-03-29T00:19:15.121Z,72.38
2019-03-29T00:20:15.094Z,72.48
2019-03-29T00:21:15.078Z,72.27
2019-03-29T00:22:15.066Z,72.48
2019-03-29T00:23:15.075Z,72.48
2019-03-29T00:24:15.281Z,72.68
2019-03-29T00:25:22.594Z,72.48
2019-03-29T00:26:15.023Z,72.99
2019-03-29T00:27:15.013Z,72.48
2019-03-29T00:28:15.000Z,72.68
2019-03-29T00:29:15.013Z,72.58
2019-03-29T00:30:14.996Z,72.48
2019-03-29T00:31:14.996Z,72.38
2019-03-29T00:32:14.994Z,72.48
2019-03-29T00:33:14.949Z,72.27
2019-03-29T00:34:15.938Z,72.38
2019-03-29T00:35:14.928Z,72.48
2019-03-29T00:36:14.922Z,72.27
2019-03-29T00:37:14.925Z,72.48
2019-03-29T00:38:14.900Z,72.17
2019-03-29T00:39:15.015Z,72.17
2019-03-29T00:40:14.878Z,72.27
2019-03-29T00:41:14.864Z,72.17
2019-03-29T00:42:14.986Z,72.06
2019-03-29T00:43:14.870Z,72.17
2019-03-29T00:44:14.860Z,72.48
2019-03-29T00:45:14.830Z,72.78
2019-03-29T00:46:14.813Z,72.68
2019-03-29T00:47:14.805Z,72.89
2019-03-29T00:48:14.799Z,72.89
2019-03-29T00:49:15.001Z,72.99
2019-03-29T00:50:14.787Z,72.61
2019-03-29T00:51:14.760Z,73.10
2019-03-29T00:52:14.753Z,72.58
2019-03-29T00:53:14.741Z,72.48
2019-03-29T00:54:22.804Z,72.58
2019-03-29T00:55:22.270Z,72.68
2019-03-29T00:56:22.259Z,72.78
2019-03-29T00:57:21.745Z,72.78
2019-03-29T00:58:22.862Z,72.78
2019-03-29T00:59:25.552Z,72.72
2019-03-29T01:00:22.215Z,72.58
2019-03-29T01:01:22.190Z,72.78
2019-03-29T01:02:22.181Z,72.72
2019-03-29T01:03:14.640Z,72.78
2019-03-29T01:04:14.643Z,72.48
2019-03-29T01:05:14.601Z,72.99
2019-03-29T01:06:14.592Z,72.99
2019-03-29T01:07:14.583Z,72.72
2019-03-29T01:08:14.577Z,72.99
2019-03-29T01:09:14.582Z,73.61
2019-03-29T01:10:14.553Z,73.54
2019-03-29T01:11:14.942Z,74.46
2019-03-29T01:12:14.542Z,75.08
2019-03-29T01:13:14.531Z,74.77
2019-03-29T01:14:14.550Z,75.08
2019-03-29T01:15:14.499Z,75.80
2019-03-29T01:16:14.522Z,76.21
2019-03-29T01:17:14.477Z,76.93
2019-03-29T01:18:14.478Z,75.90
2019-03-29T01:19:14.488Z,76.00
2019-03-29T01:20:14.442Z,75.59
2019-03-29T01:21:14.454Z,75.59
2019-03-29T01:22:14.422Z,75.18
2019-03-29T01:23:14.413Z,74.87
2019-03-29T01:24:14.424Z,73.95
2019-03-29T01:25:14.387Z,73.85
2019-03-29T01:26:14.425Z,73.85
2019-03-29T01:27:14.408Z,73.74
2019-03-29T01:28:14.359Z,73.85
2019-03-29T01:29:14.376Z,74.05
2019-03-29T01:30:14.344Z,73.74
2019-03-29T01:31:14.495Z,73.95
2019-03-29T01:32:14.321Z,73.95
2019-03-29T01:33:14.351Z,73.54
2019-03-29T01:34:14.319Z,73.33
2019-03-29T01:35:14.291Z,73.44
2019-03-29T01:36:14.279Z,73.23
2019-03-29T01:37:14.264Z,73.36
2019-03-29T01:38:21.872Z,73.85
2019-03-29T01:39:15.265Z,73.74
2019-03-29T01:40:14.233Z,73.95
2019-03-29T01:41:14.219Z,73.98
2019-03-29T01:42:14.218Z,73.88
2019-03-29T01:43:14.198Z,73.88
2019-03-29T01:44:14.211Z,74.60
2019-03-29T01:45:14.177Z,75.32
2019-03-29T01:46:14.192Z,75.42
2019-03-29T01:47:14.159Z,75.21
2019-03-29T01:48:14.149Z,75.15
2019-03-29T01:49:14.169Z,74.84
2019-03-29T01:50:14.142Z,75.76
2019-03-29T01:51:14.116Z,75.67
2019-03-29T01:52:14.124Z,75.56
2019-03-29T01:53:14.090Z,75.67
2019-03-29T01:54:14.089Z,75.56
2019-03-29T01:55:14.095Z,75.46
2019-03-29T01:56:14.286Z,75.25
2019-03-29T01:57:14.046Z,75.56
2019-03-29T01:58:14.039Z,75.67
2019-03-29T01:59:14.043Z,75.90
2019-03-29T02:00:14.017Z,76.31
2019-03-29T02:01:14.005Z,76.42
2019-03-29T02:02:13.992Z,77.24
2019-03-29T02:03:13.988Z,77.03
2019-03-29T02:04:14.014Z,77.14
2019-03-29T02:05:13.961Z,77.86
2019-03-29T02:06:13.956Z,77.65
2019-03-29T02:07:13.941Z,77.79
2019-03-29T02:08:13.932Z,77.48
2019-03-29T02:09:13.942Z,77.65
2019-03-29T02:10:13.911Z,77.79
2019-03-29T02:11:14.227Z,77.89
2019-03-29T02:12:13.895Z,77.79
2019-03-29T02:13:13.906Z,78.10
2019-03-29T02:14:13.867Z,78.30
2019-03-29T02:15:13.873Z,78.92
2019-03-29T02:16:13.846Z,78.51
2019-03-29T02:17:13.832Z,78.92
2019-03-29T02:18:14.020Z,79.33
2019-03-29T02:19:13.816Z,79.23
2019-03-29T02:20:13.824Z,79.03
2019-03-29T02:21:13.790Z,79.23
2019-03-29T02:22:13.811Z,79.13
2019-03-29T02:23:13.786Z,78.75
2019-03-29T02:24:13.756Z,79.47
2019-03-29T02:25:13.773Z,79.37
2019-03-29T02:26:13.782Z,79.58
2019-03-29T02:27:13.721Z,78.86
2019-03-29T02:28:13.718Z,78.55
2019-03-29T02:29:13.704Z,78.65
2019-03-29T02:30:13.721Z,78.55
2019-03-29T02:31:13.680Z,78.75
2019-03-29T02:32:13.675Z,78.34
2019-03-29T02:33:13.658Z,79.06
2019-03-29T02:34:15.784Z,79.27
2019-03-29T02:35:13.687Z,78.75
2019-03-29T02:36:13.644Z,78.55
2019-03-29T02:37:13.627Z,78.96
2019-03-29T02:38:13.607Z,78.75
2019-03-29T02:39:13.595Z,79.27
2019-03-29T02:40:13.641Z,79.37
2019-03-29T02:41:13.633Z,79.16
2019-03-29T02:42:14.709Z,79.27
2019-03-29T02:43:13.559Z,78.96
2019-03-29T02:44:13.541Z,79.16
2019-03-29T02:45:13.551Z,79.16
2019-03-29T02:46:13.521Z,78.86
2019-03-29T02:47:13.525Z,78.75
2019-03-29T02:48:13.512Z,79.27
2019-03-29T02:49:13.489Z,78.65
2019-03-29T02:50:13.501Z,78.96
2019-03-29T02:51:13.466Z,78.75
2019-03-29T02:52:13.483Z,78.75
2019-03-29T02:53:13.450Z,78.75
2019-03-29T02:54:13.432Z,78.96
2019-03-29T02:55:13.460Z,78.75
2019-03-29T02:56:13.411Z,78.96
2019-03-29T02:57:13.404Z,78.48
2019-03-29T02:58:13.422Z,78.44
2019-03-29T02:59:13.401Z,78.38
2019-03-29T03:00:13.390Z,78.79
2019-03-29T03:01:13.358Z,78.48
2019-03-29T03:02:13.351Z,78.58
2019-03-29T03:03:13.344Z,79.10
2019-03-29T03:04:13.330Z,78.79
2019-03-29T03:05:13.334Z,78.89
2019-03-29T03:06:13.311Z,79.30
2019-03-29T03:07:13.349Z,79.61
2019-03-29T03:08:13.280Z,79.20
2019-03-29T03:09:14.687Z,79.20
2019-03-29T03:10:13.280Z,79.44
2019-03-29T03:11:13.260Z,79.20
2019-03-29T03:12:13.241Z,79.65
2019-03-29T03:13:13.227Z,79.24
2019-03-29T03:14:13.214Z,79.55
2019-03-29T03:15:13.226Z,79.75
2019-03-29T03:16:13.196Z,79.65
2019-03-29T03:17:13.199Z,80.06
2019-03-29T03:18:13.175Z,79.65
2019-03-29T03:19:13.160Z,79.75
2019-03-29T03:20:15.412Z,80.06
2019-03-29T03:21:13.169Z,80.47
2019-03-29T03:22:13.167Z,80.37
2019-03-29T03:23:13.175Z,80.37
2019-03-29T03:24:13.106Z,80.51
2019-03-29T03:25:13.123Z,80.47
2019-03-29T03:26:13.092Z,80.37
2019-03-29T03:27:13.082Z,80.82
2019-03-29T03:28:13.068Z,80.93
2019-03-29T03:29:13.064Z,80.51
2019-03-29T03:30:13.112Z,80.99
2019-03-29T03:31:13.051Z,80.79
2019-03-29T03:32:13.106Z,80.93
2019-03-29T03:33:13.012Z,80.68
2019-03-29T03:34:13.005Z,81.23
2019-03-29T03:35:13.055Z,81.09
2019-03-29T03:36:12.987Z,81.23
2019-03-29T03:37:12.987Z,81.13
2019-03-29T03:38:12.965Z,81.34
2019-03-29T03:39:30.121Z,80.41
2019-03-29T03:40:14.000Z,80.93
2019-03-29T03:41:13.083Z,80.93
2019-03-29T03:42:12.911Z,80.62
2019-03-29T03:43:12.905Z,80.62
2019-03-29T03:44:12.935Z,80.41
2019-03-29T03:45:12.901Z,80.72
2019-03-29T03:46:12.892Z,80.93
2019-03-29T03:47:12.861Z,80.93
2019-03-29T03:48:12.861Z,80.82
2019-03-29T03:49:12.838Z,80.93
2019-03-29T03:50:12.957Z,80.72
2019-03-29T03:51:12.825Z,80.82
2019-03-29T03:52:12.816Z,80.93
2019-03-29T03:53:12.794Z,80.93
2019-03-29T03:54:12.801Z,80.82
2019-03-29T03:55:12.805Z,81.03
2019-03-29T03:56:12.764Z,80.93
2019-03-29T03:57:12.754Z,80.93
2019-03-29T03:58:12.753Z,80.41
2019-03-29T03:59:12.733Z,80.62
2019-03-29T04:00:12.744Z,80.41
2019-03-29T04:01:12.720Z,80.65
2019-03-29T04:02:12.701Z,80.51
2019-03-29T04:03:20.224Z,80.72
2019-03-29T04:04:20.229Z,80.62
2019-03-29T04:05:12.692Z,80.34
2019-03-29T04:06:12.653Z,80.30
2019-03-29T04:07:12.644Z,80.30
2019-03-29T04:08:12.641Z,80.41
2019-03-29T04:09:12.625Z,80.44
2019-03-29T04:10:12.638Z,80.86
2019-03-29T04:11:12.606Z,80.44
2019-03-29T04:12:12.624Z,80.76
2019-03-29T04:13:12.584Z,80.86
2019-03-29T04:14:12.574Z,81.37
2019-03-29T04:15:12.581Z,81.17
2019-03-29T04:16:12.584Z,81.27
2019-03-29T04:17:12.561Z,81.37
2019-03-29T04:18:15.725Z,81.17
2019-03-29T04:19:20.056Z,81.37
2019-03-29T04:20:20.868Z,81.37
2019-03-29T04:21:12.494Z,81.17
2019-03-29T04:22:21.038Z,81.41
2019-03-29T04:23:20.033Z,81.99
2019-03-29T04:24:20.029Z,81.27
2019-03-29T04:25:12.470Z,81.89
2019-03-29T04:26:12.438Z,81.89
2019-03-29T04:27:12.446Z,81.79
2019-03-29T04:28:12.426Z,81.79
2019-03-29T04:29:12.405Z,81.79
2019-03-29T04:30:12.427Z,81.68
2019-03-29T04:31:12.388Z,81.79
2019-03-29T04:32:12.380Z,81.58
2019-03-29T04:33:12.412Z,81.79
2019-03-29T04:34:12.356Z,81.58
2019-03-29T04:35:12.373Z,81.89
2019-03-29T04:36:12.339Z,81.58
2019-03-29T04:37:12.325Z,81.99
2019-03-29T04:38:12.327Z,81.79
2019-03-29T04:39:12.305Z,81.68
2019-03-29T04:40:12.310Z,81.79
2019-03-29T04:41:12.285Z,81.79
2019-03-29T04:42:12.270Z,81.48
2019-03-29T04:43:12.264Z,81.85
2019-03-29T04:44:12.259Z,81.48
2019-03-29T04:45:12.282Z,81.68
2019-03-29T04:46:12.378Z,81.58
2019-03-29T04:47:12.219Z,81.68
2019-03-29T04:48:12.210Z,81.58
2019-03-29T04:49:12.197Z,81.68
2019-03-29T04:50:12.368Z,81.68
2019-03-29T04:51:20.788Z,81.58
2019-03-29T04:52:12.193Z,81.48
2019-03-29T04:53:12.160Z,81.89
2019-03-29T04:54:12.151Z,81.68
2019-03-29T04:55:12.133Z,81.58
2019-03-29T04:56:12.144Z,81.99
2019-03-29T04:57:12.116Z,82.30
2019-03-29T04:58:12.108Z,82.30
2019-03-29T04:59:12.091Z,82.30
2019-03-29T05:00:12.082Z,81.99
2019-03-29T05:01:12.092Z,81.99
2019-03-29T05:02:19.613Z,82.10
2019-03-29T05:03:19.639Z,81.48
2019-03-29T05:04:12.042Z,81.48
2019-03-29T05:05:19.178Z,81.58
2019-03-29T05:06:19.569Z,81.79
2019-03-29T05:07:19.560Z,81.48
2019-03-29T05:08:11.997Z,81.17
2019-03-29T05:09:19.033Z,81.37
2019-03-29T05:10:21.923Z,81.58
2019-03-29T05:11:20.510Z,81.37
2019-03-29T05:13:28.154Z,81.37
2019-03-29T05:14:28.108Z,81.17
2019-03-29T05:15:28.134Z,81.37
2019-03-29T05:16:28.086Z,81.27
2019-03-29T05:17:28.194Z,81.41
2019-03-29T05:18:28.076Z,81.27
2019-03-29T05:19:28.088Z,81.10
2019-03-29T05:20:28.064Z,81.37
2019-03-29T05:21:28.032Z,81.37
2019-03-29T05:22:28.021Z,80.55
2019-03-29T05:23:28.021Z,80.65
2019-03-29T05:24:35.625Z,80.55
2019-03-29T05:25:28.008Z,80.96
2019-03-29T05:26:27.977Z,80.86
2019-03-29T05:27:27.970Z,80.86
2019-03-29T05:28:27.967Z,80.76
2019-03-29T05:29:27.944Z,81.27
2019-03-29T05:30:27.958Z,81.17
2019-03-29T05:31:27.930Z,81.37
2019-03-29T05:32:27.913Z,80.76
2019-03-29T05:33:27.911Z,80.86
2019-03-29T05:34:27.898Z,80.76
2019-03-29T05:35:27.896Z,80.65
2019-03-29T05:36:27.872Z,80.86
2019-03-29T05:37:27.859Z,80.76
2019-03-29T05:38:27.850Z,80.96
2019-03-29T05:39:27.844Z,80.96
2019-03-29T05:40:34.747Z,80.55
2019-03-29T05:41:28.813Z,80.55
2019-03-29T05:42:27.812Z,80.51
2019-03-29T05:43:27.790Z,80.55
2019-03-29T05:44:27.807Z,80.04
2019-03-29T05:45:27.783Z,80.20
2019-03-29T05:46:27.783Z,79.62
2019-03-29T05:47:27.754Z,79.79
2019-03-29T05:48:27.779Z,79.90
2019-03-29T05:49:27.724Z,80.00
2019-03-29T05:50:27.716Z,80.10
2019-03-29T05:51:27.726Z,79.69
2019-03-29T05:52:27.703Z,80.20
2019-03-29T05:53:27.691Z,80.20
2019-03-29T05:54:27.697Z,79.90
2019-03-29T05:55:32.909Z,79.58
2019-03-29T05:56:28.678Z,80.20
2019-03-29T05:57:27.680Z,80.20
2019-03-29T05:58:27.649Z,80.10
2019-03-29T05:59:27.622Z,79.69
2019-03-29T06:00:27.609Z,79.48
2019-03-29T06:01:27.616Z,79.38
2019-03-29T06:02:27.588Z,79.44
2019-03-29T06:03:27.583Z,79.58
2019-03-29T06:04:27.610Z,79.44
2019-03-29T06:05:27.554Z,78.83
2019-03-29T06:06:27.581Z,78.52
2019-03-29T06:07:27.553Z,78.62
2019-03-29T06:08:27.633Z,78.83
2019-03-29T06:09:27.559Z,78.62
2019-03-29T06:10:27.501Z,78.62
2019-03-29T06:11:27.514Z,79.03
2019-03-29T06:12:27.483Z,78.72
2019-03-29T06:13:27.479Z,79.44
2019-03-29T06:14:27.617Z,78.79
2019-03-29T06:15:27.470Z,78.62
2019-03-29T06:16:38.431Z,78.69
2019-03-29T06:17:28.547Z,78.62
2019-03-29T06:18:27.418Z,78.41
2019-03-29T06:19:27.402Z,78.17
2019-03-29T06:20:27.416Z,77.66
2019-03-29T06:21:27.431Z,77.76
2019-03-29T06:22:27.377Z,77.76
2019-03-29T06:23:27.362Z,77.55
2019-03-29T06:24:27.352Z,78.17
2019-03-29T06:25:27.342Z,77.45
2019-03-29T06:26:27.387Z,77.35
2019-03-29T06:27:27.329Z,77.35
2019-03-29T06:28:29.868Z,77.45
2019-03-29T06:29:27.296Z,77.55
2019-03-29T06:30:27.293Z,77.21
2019-03-29T06:31:27.301Z,77.21
2019-03-29T06:32:27.277Z,77.42
2019-03-29T06:33:27.263Z,77.11
2019-03-29T06:34:27.298Z,77.21
2019-03-29T06:35:27.228Z,77.31
2019-03-29T06:36:27.376Z,77.31
2019-03-29T06:37:27.254Z,77.11
2019-03-29T06:38:27.202Z,77.42
2019-03-29T06:39:27.201Z,76.90
2019-03-29T06:40:27.199Z,76.56
2019-03-29T06:41:27.199Z,76.79
2019-03-29T06:42:27.211Z,76.79
2019-03-29T06:43:27.163Z,77.11
2019-03-29T06:45:48.085Z,77.17
2019-03-29T06:46:55.684Z,76.25
2019-03-29T06:47:45.952Z,76.35
2019-03-29T06:48:45.978Z,75.94
2019-03-29T06:49:45.941Z,75.84
2019-03-29T06:50:45.991Z,75.73
2019-03-29T06:51:45.926Z,75.63
2019-03-29T06:52:45.897Z,75.52
2019-03-29T06:53:45.893Z,75.63
2019-03-29T06:54:45.948Z,75.42
2019-03-29T06:55:45.886Z,75.39
2019-03-29T06:56:45.920Z,75.52
2019-03-29T06:57:45.899Z,75.63
2019-03-29T06:58:45.828Z,75.73
2019-03-29T06:59:45.847Z,74.91
2019-03-29T07:00:46.807Z,74.87
2019-03-29T07:01:46.622Z,74.77
2019-03-29T07:02:45.850Z,75.39
2019-03-29T07:03:45.833Z,75.59
2019-03-29T07:04:45.765Z,75.04
2019-03-29T07:05:45.755Z,74.95
2019-03-29T07:06:45.812Z,74.43
2019-03-29T07:07:45.735Z,75.46
2019-03-29T07:08:45.722Z,74.84
2019-03-29T07:09:45.745Z,74.33
2019-03-29T07:10:45.700Z,74.43
2019-03-29T07:11:45.779Z,73.78
2019-03-29T07:12:45.689Z,74.12
2019-03-29T07:13:56.808Z,74.50
2019-03-29T07:14:46.653Z,74.40
2019-03-29T07:15:45.644Z,73.78
2019-03-29T07:16:45.729Z,73.78
2019-03-29T07:17:45.622Z,73.57
2019-03-29T07:18:45.619Z,73.57
2019-03-29T07:19:45.602Z,73.74
2019-03-29T07:20:45.614Z,73.95
2019-03-29T07:21:45.610Z,73.23
2019-03-29T07:22:45.631Z,73.44
2019-03-29T07:23:45.561Z,73.33
2019-03-29T07:24:45.557Z,72.72
2019-03-29T07:25:45.612Z,73.19
2019-03-29T07:26:45.551Z,72.68
2019-03-29T07:27:52.009Z,73.10
2019-03-29T07:28:46.502Z,72.58
2019-03-29T07:29:45.509Z,72.78
2019-03-29T07:30:45.480Z,72.78
2019-03-29T07:31:45.488Z,72.58
2019-03-29T07:32:45.459Z,72.75
2019-03-29T07:33:45.461Z,72.44
2019-03-29T07:34:45.437Z,72.68
2019-03-29T07:35:47.339Z,72.44
2019-03-29T07:36:45.448Z,72.44
2019-03-29T07:37:45.404Z,72.14
2019-03-29T07:38:45.468Z,72.20
2019-03-29T07:39:45.381Z,71.69
2019-03-29T07:40:45.373Z,71.80
2019-03-29T07:41:45.386Z,71.69
2019-03-29T07:42:45.349Z,71.80
2019-03-29T07:43:45.374Z,72.07
2019-03-29T07:44:45.331Z,71.48
2019-03-29T07:45:45.391Z,71.25
2019-03-29T07:46:45.327Z,71.28
2019-03-29T07:47:45.323Z,70.67
2019-03-29T07:48:45.285Z,71.48
2019-03-29T07:49:52.816Z,71.35
2019-03-29T07:50:45.261Z,70.64
2019-03-29T07:51:45.362Z,70.94
2019-03-29T07:52:45.241Z,70.94
2019-03-29T07:53:45.257Z,70.50
2019-03-29T07:54:52.761Z,70.64
2019-03-29T07:55:52.756Z,70.50
2019-03-29T07:56:54.809Z,70.60
2019-03-29T07:57:53.737Z,69.57
2019-03-29T07:58:52.745Z,69.98
2019-03-29T07:59:45.197Z,69.98
2019-03-29T08:00:45.166Z,69.95
2019-03-29T08:01:45.163Z,69.54
2019-03-29T08:02:45.140Z,70.19
2019-03-29T08:03:45.162Z,69.98
2019-03-29T08:04:46.589Z,69.44
2019-03-29T08:05:45.257Z,69.24
2019-03-29T08:06:46.562Z,68.52
2019-03-29T08:07:45.076Z,68.83
2019-03-29T08:08:45.068Z,68.38
2019-03-29T08:09:45.077Z,68.38
2019-03-29T08:10:45.078Z,68.59
2019-03-29T08:11:46.603Z,68.38
2019-03-29T08:12:45.025Z,68.69
2019-03-29T08:13:45.040Z,68.69
2019-03-29T08:14:45.000Z,68.69
2019-03-29T08:15:45.000Z,68.08
2019-03-29T08:16:45.017Z,67.74
2019-03-29T08:17:45.005Z,67.87
2019-03-29T08:18:44.958Z,67.84
2019-03-29T08:19:44.957Z,68.05
2019-03-29T08:20:45.005Z,67.94
2019-03-29T08:21:44.986Z,67.43
2019-03-29T08:22:44.911Z,68.73
2019-03-29T08:23:44.899Z,69.42
2019-03-29T08:24:44.890Z,69.59
2019-03-29T08:25:44.881Z,66.62
2019-03-29T08:26:44.886Z,66.35
2019-03-29T08:27:44.856Z,66.01
2019-03-29T08:28:44.848Z,66.35
2019-03-29T08:29:44.852Z,66.25
2019-03-29T08:30:44.848Z,65.97
2019-03-29T08:31:44.831Z,66.66
2019-03-29T08:32:44.835Z,65.94
2019-03-29T08:33:44.797Z,65.73
2019-03-29T08:34:44.786Z,65.91
2019-03-29T08:35:45.204Z,66.11
2019-03-29T08:36:44.782Z,66.21
2019-03-29T08:37:44.761Z,66.52
2019-03-29T08:38:44.760Z,66.42
2019-03-29T08:39:44.723Z,66.01
2019-03-29T08:40:45.325Z,66.28
2019-03-29T08:41:44.720Z,65.37
2019-03-29T08:42:44.693Z,65.47
2019-03-29T08:43:44.695Z,65.77
2019-03-29T08:44:44.671Z,65.37
2019-03-29T08:45:44.658Z,64.75
2019-03-29T08:46:44.666Z,65.88
2019-03-29T08:47:44.639Z,65.77
2019-03-29T08:48:44.635Z,65.26
2019-03-29T08:49:44.661Z,65.57
2019-03-29T08:50:44.605Z,65.57
2019-03-29T08:51:44.657Z,65.26
2019-03-29T08:52:44.591Z,65.54
2019-03-29T08:53:44.573Z,65.13
2019-03-29T08:54:44.565Z,65.13
2019-03-29T08:55:46.081Z,65.03
2019-03-29T08:56:44.548Z,64.93
2019-03-29T08:57:44.565Z,64.49
2019-03-29T08:58:46.477Z,64.39
2019-03-29T08:59:44.507Z,64.46
2019-03-29T09:00:44.506Z,64.05
2019-03-29T09:01:44.483Z,64.36
2019-03-29T09:02:44.518Z,63.75
2019-03-29T09:03:44.459Z,63.85
2019-03-29T09:04:44.452Z,63.71
2019-03-29T09:05:44.444Z,63.41
2019-03-29T09:06:53.337Z,63.41
2019-03-29T09:07:45.534Z,63.00
2019-03-29T09:08:44.407Z,62.87
2019-03-29T09:09:46.405Z,62.87
2019-03-29T09:10:44.409Z,62.46
2019-03-29T09:11:44.376Z,62.77
2019-03-29T09:12:44.378Z,62.46
2019-03-29T09:13:44.361Z,62.13
2019-03-29T09:14:44.346Z,62.23
2019-03-29T09:15:44.337Z,62.33
2019-03-29T09:16:44.346Z,61.90
2019-03-29T09:17:44.329Z,61.69
2019-03-29T09:18:44.298Z,61.29
2019-03-29T09:19:44.292Z,61.49
2019-03-29T09:20:44.301Z,61.36
2019-03-29T09:21:44.267Z,60.85
2019-03-29T09:22:44.300Z,60.64
2019-03-29T09:23:44.263Z,61.05
2019-03-29T09:24:44.232Z,60.00
2019-03-29T09:25:44.222Z,60.00
2019-03-29T09:26:44.212Z,60.41
2019-03-29T09:27:44.218Z,60.21
2019-03-29T09:28:44.189Z,59.80
2019-03-29T09:29:44.193Z,59.91
2019-03-29T09:30:44.167Z,60.28
2019-03-29T09:31:44.156Z,59.77
2019-03-29T09:32:44.166Z,59.84
2019-03-29T09:33:44.134Z,58.63
2019-03-29T09:34:44.128Z,58.17
2019-03-29T09:35:44.110Z,56.26
2019-03-29T09:36:44.112Z,54.71
2019-03-29T09:37:44.112Z,51.13
2019-03-29T09:38:44.085Z,46.96
2019-03-29T09:39:44.069Z,44.96
2019-03-29T09:40:53.512Z,43.02
2019-03-29T09:41:45.044Z,41.24
2019-03-29T09:42:44.102Z,39.79
2019-03-29T09:43:44.022Z,39.84
2019-03-29T09:44:44.035Z,38.31
2019-03-29T09:45:44.029Z,37.05
2019-03-29T09:46:43.992Z,36.55
2019-03-29T09:47:43.999Z,36.34
2019-03-29T09:48:44.004Z,35.99
2019-03-29T09:49:43.969Z,34.40
2019-03-29T09:50:48.826Z,34.76
2019-03-29T09:51:44.938Z,34.08
2019-03-29T09:52:43.970Z,34.66
2019-03-29T09:53:43.926Z,33.76
2019-03-29T09:54:43.962Z,33.73
2019-03-29T09:55:45.769Z,33.92
2019-03-29T09:56:43.884Z,32.70
2019-03-29T09:57:43.893Z,32.70
2019-03-29T09:58:45.196Z,31.69
2019-03-29T09:59:43.851Z,32.15
2019-03-29T10:00:43.857Z,31.93
2019-03-29T10:01:43.829Z,29.65
2019-03-29T10:02:43.841Z,29.95
2019-03-29T10:03:43.811Z,30.15
2019-03-29T10:04:43.798Z,29.43
2019-03-29T10:05:43.795Z,29.34
2019-03-29T10:06:43.777Z,29.83
2019-03-29T10:07:43.786Z,30.46
2019-03-29T10:08:43.759Z,29.88
2019-03-29T10:09:43.748Z,31.11
2019-03-29T10:10:43.738Z,31.48
2019-03-29T10:11:43.742Z,30.50
2019-03-29T10:12:44.217Z,30.80
2019-03-29T10:13:43.708Z,32.86
2019-03-29T10:14:43.699Z,33.29
2019-03-29T10:15:43.719Z,33.63
2019-03-29T10:16:43.675Z,34.28
2019-03-29T10:17:43.684Z,36.11
2019-03-29T10:18:43.667Z,37.34
2019-03-29T10:19:43.653Z,37.76
2019-03-29T10:20:43.635Z,38.59
2019-03-29T10:21:43.638Z,38.59
2019-03-29T10:22:43.650Z,38.79
2019-03-29T10:23:43.607Z,38.59
2019-03-29T10:24:52.145Z,39.50
2019-03-29T10:25:51.134Z,38.31
2019-03-29T10:26:51.143Z,38.53
2019-03-29T10:27:43.582Z,39.33
2019-03-29T10:28:43.559Z,39.53
2019-03-29T10:29:43.555Z,38.33
2019-03-29T10:30:46.435Z,39.63
2019-03-29T10:31:43.529Z,40.23
2019-03-29T10:32:43.545Z,38.95
2019-03-29T10:33:43.514Z,39.47
2019-03-29T10:34:43.494Z,40.55
2019-03-29T10:35:52.093Z,39.75
2019-03-29T10:36:44.475Z,40.05
2019-03-29T10:37:43.566Z,39.75
2019-03-29T10:38:43.454Z,40.15
2019-03-29T10:39:43.457Z,40.53
2019-03-29T10:40:43.436Z,39.93
2019-03-29T10:41:43.422Z,39.93
2019-03-29T10:42:56.755Z,39.72
2019-03-29T10:43:44.406Z,40.52
2019-03-29T10:44:43.392Z,39.11
2019-03-29T10:45:43.401Z,40.22
2019-03-29T10:46:43.373Z,39.31
2019-03-29T10:47:44.258Z,38.42
2019-03-29T10:48:43.352Z,39.72
2019-03-29T10:49:43.338Z,38.61
2019-03-29T10:50:43.326Z,38.53
2019-03-29T10:51:43.325Z,39.23
2019-03-29T10:52:43.331Z,38.73
2019-03-29T10:53:43.294Z,37.93
2019-03-29T10:54:43.284Z,38.55
2019-03-29T10:55:43.276Z,38.57
2019-03-29T10:56:43.306Z,39.75
2019-03-29T10:57:43.274Z,39.85
2019-03-29T10:58:44.959Z,40.05
2019-03-29T10:59:43.237Z,38.93
2019-03-29T11:00:43.221Z,38.73
2019-03-29T11:01:43.228Z,38.65
2019-03-29T11:02:43.233Z,38.77
2019-03-29T11:03:43.192Z,39.87
2019-03-29T11:04:43.183Z,39.85
2019-03-29T11:05:43.199Z,39.53
2019-03-29T11:06:43.164Z,39.83
2019-03-29T11:07:43.180Z,38.42
2019-03-29T11:08:43.695Z,39.50
2019-03-29T11:09:43.123Z,38.49
2019-03-29T11:10:43.163Z,38.20
2019-03-29T11:11:43.100Z,37.49
2019-03-29T11:12:43.112Z,38.73
2019-03-29T11:13:43.080Z,38.85
2019-03-29T11:14:43.077Z,39.65
2019-03-29T11:15:43.086Z,40.15
2019-03-29T11:16:43.069Z,39.65
2019-03-29T11:17:43.056Z,39.35
2019-03-29T11:18:45.651Z,39.23
2019-03-29T11:19:43.019Z,40.31
2019-03-29T11:20:43.021Z,38.71
2019-03-29T11:21:42.997Z,39.79
2019-03-29T11:22:43.001Z,38.68
2019-03-29T11:23:42.977Z,37.58
2019-03-29T11:24:43.005Z,36.58
2019-03-29T11:25:42.993Z,37.38
2019-03-29T11:26:42.945Z,37.49
2019-03-29T11:27:42.948Z,37.48
2019-03-29T11:28:42.920Z,37.48
2019-03-29T11:29:42.913Z,38.56
2019-03-29T11:30:43.185Z,37.14
2019-03-29T11:31:42.951Z,36.04
2019-03-29T11:32:42.897Z,36.54
2019-03-29T11:33:42.873Z,36.36
2019-03-29T11:34:42.855Z,37.46
2019-03-29T11:35:42.875Z,39.04
2019-03-29T11:36:42.845Z,37.42
2019-03-29T11:37:42.839Z,37.10
2019-03-29T11:38:42.815Z,35.81
2019-03-29T11:39:42.803Z,37.40
2019-03-29T11:40:42.796Z,35.89
2019-03-29T11:41:42.784Z,36.37
2019-03-29T11:42:42.778Z,37.27
2019-03-29T11:43:42.788Z,35.58
2019-03-29T11:44:42.757Z,34.48
2019-03-29T11:45:42.738Z,35.58
2019-03-29T11:46:42.764Z,37.37
2019-03-29T11:47:42.728Z,35.66
2019-03-29T11:48:42.722Z,34.46
2019-03-29T11:49:42.697Z,34.64
2019-03-29T11:50:42.726Z,35.42
2019-03-29T11:51:42.743Z,37.75
2019-03-29T11:52:42.670Z,33.67
2019-03-29T11:53:42.674Z,34.25
2019-03-29T11:54:42.659Z,34.34
2019-03-29T11:55:42.636Z,34.05
2019-03-29T11:56:42.631Z,34.03
2019-03-29T11:57:42.621Z,34.31
2019-03-29T11:58:42.657Z,33.56
2019-03-29T11:59:42.598Z,38.05
2019-03-29T12:00:42.597Z,36.37
2019-03-29T12:01:42.574Z,36.64
2019-03-29T12:02:42.566Z,34.86
2019-03-29T12:03:42.564Z,36.55
2019-03-29T12:04:42.538Z,33.97
2019-03-29T12:05:42.529Z,36.34
2019-03-29T12:06:42.622Z,36.10
2019-03-29T12:07:42.512Z,33.60
2019-03-29T12:08:42.519Z,33.18
2019-03-29T12:09:42.583Z,31.68
2019-03-29T12:10:42.472Z,31.47
2019-03-29T12:11:42.464Z,31.77
2019-03-29T12:12:42.480Z,32.54
2019-03-29T12:13:42.464Z,31.93
2019-03-29T12:14:42.469Z,32.03
2019-03-29T12:15:42.420Z,31.93
2019-03-29T12:16:42.411Z,30.71
2019-03-29T12:17:42.440Z,30.00
2019-03-29T12:18:42.419Z,30.39
2019-03-29T12:19:42.391Z,32.06
2019-03-29T12:20:42.370Z,29.85
2019-03-29T12:21:42.350Z,28.38
2019-03-29T12:22:42.347Z,29.37
2019-03-29T12:23:42.351Z,29.37
2019-03-29T12:24:42.325Z,29.85
2019-03-29T12:25:42.315Z,28.97
2019-03-29T12:26:42.311Z,28.41
2019-03-29T12:27:42.293Z,29.81
2019-03-29T12:28:42.352Z,30.58
2019-03-29T12:29:42.274Z,28.41
2019-03-29T12:30:42.256Z,29.81
2019-03-29T12:31:42.252Z,29.82
2019-03-29T12:32:42.244Z,29.72
2019-03-29T12:33:42.250Z,29.11
2019-03-29T12:34:42.219Z,30.88
2019-03-29T12:35:42.211Z,31.46
2019-03-29T12:36:42.256Z,29.07
2019-03-29T12:37:42.191Z,31.63
2019-03-29T12:38:42.204Z,30.02
2019-03-29T12:39:42.166Z,27.93
2019-03-29T12:40:45.009Z,27.86
2019-03-29T12:41:42.141Z,28.30
2019-03-29T12:42:42.129Z,28.51
2019-03-29T12:43:55.032Z,29.11
2019-03-29T12:44:43.160Z,29.90
2019-03-29T12:45:42.103Z,28.58
2019-03-29T12:46:42.099Z,28.86
2019-03-29T12:48:37.616Z,27.56
2019-03-29T12:49:46.299Z,27.76
2019-03-29T12:50:37.493Z,27.44
2019-03-29T12:51:37.509Z,27.22
2019-03-29T12:52:46.047Z,26.21
2019-03-29T12:53:46.286Z,26.20
2019-03-29T12:54:45.070Z,26.39
2019-03-29T12:55:44.981Z,25.60